Time;durP1;ratioP1;P1;durP2;ratioP2;P2;SDS_P1;SDS_P2;PMS_P1;PMS_P2;Temp;Humidity;BMP_temperature;BMP_pressure;BME280_temperature;BME280_humidity;BME280_pressure;Samples;Min_cycle;Max_cycle;Signal;HPM_P1;HPM_P2
2022/05/03 00:01:03;;;;;;;4.83;4.43;;;;;;;10.94;78.47;96313.72;5063043;28;20213;-51
2022/05/03 00:03:37;;;;;;;4.30;4.00;;;;;;;10.96;77.66;96317.88;5063238;28;20203;-52
2022/05/03 00:06:11;;;;;;;4.70;4.40;;;;;;;10.97;77.24;96316.06;5062577;28;20646;-51
2022/05/03 00:08:41;;;;;;;4.63;4.23;;;;;;;10.84;78.62;96319.06;5062482;28;20248;-51
2022/05/03 00:11:10;;;;;;;4.53;4.13;;;;;;;10.91;77.91;96314.84;5069371;28;20205;-50
2022/05/03 00:13:44;;;;;;;4.60;4.17;;;;;;;10.83;78.70;96308.66;5081974;28;20233;-51
2022/05/03 00:16:11;;;;;;;4.60;4.30;;;;;;;10.82;78.74;96313.13;5079701;28;20229;-52
2022/05/03 00:18:37;;;;;;;4.27;3.97;;;;;;;10.81;79.35;96311.44;5069119;28;20215;-51
2022/05/03 00:21:04;;;;;;;4.30;4.00;;;;;;;10.80;78.67;96317.75;5061977;28;20272;-51
2022/05/03 00:23:31;;;;;;;4.50;4.10;;;;;;;10.84;79.20;96320.91;5063067;28;20205;-52
2022/05/03 00:25:58;;;;;;;4.63;4.33;;;;;;;10.83;78.56;96317.44;5063865;28;20209;-51
2022/05/03 00:28:27;;;;;;;4.53;3.90;;;;;;;10.81;78.68;96319.38;5062839;28;20222;-52
2022/05/03 00:30:56;;;;;;;4.60;4.20;;;;;;;10.85;78.42;96310.16;5063361;28;20606;-51
2022/05/03 00:33:23;;;;;;;4.60;4.20;;;;;;;10.81;79.71;96311.44;5065124;28;20226;-52
2022/05/03 00:35:50;;;;;;;4.33;4.03;;;;;;;10.85;78.50;96304.88;5065142;28;20206;-52
2022/05/03 00:38:16;;;;;;;4.73;4.33;;;;;;;10.84;79.20;96303.22;5062129;28;20214;-51
2022/05/03 00:40:49;;;;;;;4.60;4.20;;;;;;;10.85;78.58;96302.22;5061762;28;20214;-52
2022/05/03 00:43:23;;;;;;;4.40;4.10;;;;;;;10.86;79.05;96303.06;5062626;28;20201;-52
2022/05/03 00:45:56;;;;;;;4.73;3.93;;;;;;;10.78;79.61;96297.69;5061638;28;20198;-51
2022/05/03 00:48:35;;;;;;;4.73;4.33;;;;;;;10.79;79.49;96300.22;5061144;28;20282;-51
2022/05/03 00:51:05;;;;;;;3.93;3.70;;;;;;;10.77;80.38;96296.88;5063754;28;20190;-52
2022/05/03 00:53:35;;;;;;;4.17;3.87;;;;;;;10.74;80.58;96301.63;5066168;28;20288;-51
2022/05/03 00:56:20;;;;;;;4.73;4.43;;;;;;;10.74;80.30;96294.53;5063629;28;20217;-51
2022/05/03 00:59:01;;;;;;;4.30;4.00;;;;;;;10.75;81.14;96304.13;5062191;28;20522;-51
2022/05/03 01:01:40;;;;;;;4.50;4.20;;;;;;;10.76;80.49;96304.97;5061497;28;20285;-51
2022/05/03 01:04:25;;;;;;;4.80;4.43;;;;;;;10.75;80.51;96295.38;5061646;28;20199;-51
2022/05/03 01:06:56;;;;;;;4.87;4.23;;;;;;;10.70;80.99;96301.09;5061978;28;20212;-52
2022/05/03 01:09:32;;;;;;;4.70;4.30;;;;;;;10.73;80.87;96292.91;5061323;28;20226;-52
2022/05/03 01:12:08;;;;;;;4.77;4.40;;;;;;;10.71;80.69;96289.56;5062161;28;20217;-51
2022/05/03 01:14:46;;;;;;;4.70;4.23;;;;;;;10.67;81.81;96301.41;5061840;28;20220;-51
2022/05/03 01:17:22;;;;;;;4.30;4.00;;;;;;;10.69;81.08;96304.75;5061624;28;20197;-51
2022/05/03 01:19:57;;;;;;;5.33;4.93;;;;;;;10.73;80.61;96298.19;5061548;28;20197;-51
2022/05/03 01:22:56;;;;;;;4.90;4.53;;;;;;;10.71;80.41;96302.78;5061027;28;20199;-52
2022/05/03 01:25:45;;;;;;;4.70;4.20;;;;;;;10.62;82.10;96302.88;5061235;28;20199;-51
2022/05/03 01:28:23;;;;;;;5.63;4.90;;;;;;;10.64;80.99;96309.66;5061760;28;20202;-51
2022/05/03 01:30:52;;;;;;;5.20;4.60;;;;;;;10.57;81.51;96305.94;5062060;28;20210;-52
2022/05/03 01:33:32;;;;;;;5.10;4.70;;;;;;;10.54;81.36;96306.25;5061332;28;20297;-50
2022/05/03 01:35:59;;;;;;;5.20;4.80;;;;;;;10.55;80.84;96307.94;5061717;28;20319;-52
2022/05/03 01:38:35;;;;;;;5.40;4.90;;;;;;;10.48;83.53;96315.63;5061199;28;20642;-51
2022/05/03 01:41:12;;;;;;;5.30;4.90;;;;;;;10.45;83.56;96312.47;5061638;28;20197;-52
2022/05/03 01:43:53;;;;;;;5.03;4.53;;;;;;;10.41;83.31;96311.94;5061598;28;20191;-51
2022/05/03 01:46:26;;;;;;;5.57;5.17;;;;;;;10.38;84.55;96314.03;5061651;28;20564;-52
2022/05/03 01:51:57;;;;;;;6.73;5.67;;;;;;;10.34;83.75;96315.31;5061139;28;20210;-51
2022/05/03 01:54:37;;;;;;;6.57;5.97;;;;;;;10.36;83.58;96308.88;5060821;28;20658;-52
2022/05/03 01:57:10;;;;;;;6.53;5.93;;;;;;;10.37;83.79;96305.28;5061715;28;20205;-52
2022/05/03 01:59:45;;;;;;;6.07;5.60;;;;;;;10.38;83.56;96311.41;5062405;28;20199;-52
2022/05/03 02:02:18;;;;;;;6.37;5.87;;;;;;;10.40;83.14;96314.72;5065001;28;20316;-51
2022/05/03 02:04:56;;;;;;;5.70;5.23;;;;;;;10.33;83.49;96303.06;5064687;28;20205;-50
2022/05/03 02:07:35;;;;;;;6.73;5.73;;;;;;;10.32;83.63;96306.69;5064934;28;20576;-52
2022/05/03 02:10:05;;;;;;;5.67;5.17;;;;;;;10.31;85.27;96307.66;5064721;28;20210;-51
2022/05/03 02:12:32;;;;;;;6.23;5.67;;;;;;;10.30;84.40;96309.50;5064490;28;20237;-50
2022/05/03 02:15:04;;;;;;;6.33;5.83;;;;;;;10.33;84.40;96311.84;5064356;28;20221;-51
2022/05/03 02:17:46;;;;;;;6.20;5.70;;;;;;;10.35;83.94;96309.03;5064816;28;20221;-52
2022/05/03 02:20:28;;;;;;;5.87;5.37;;;;;;;10.30;83.87;96308.66;5064019;28;20630;-52
2022/05/03 02:23:17;;;;;;;5.97;5.57;;;;;;;10.24;84.54;96309.25;5064543;28;20217;-52
2022/05/03 02:25:54;;;;;;;6.43;5.83;;;;;;;10.23;84.97;96312.88;5083802;28;21018;-52
2022/05/03 02:28:24;;;;;;;7.03;6.27;;;;;;;10.12;86.23;96313.88;5078890;28;20190;-52
2022/05/03 02:30:53;;;;;;;8.10;6.33;;;;;;;10.06;85.53;96321.59;5070707;28;20201;-51
2022/05/03 02:33:25;;;;;;;6.77;6.27;;;;;;;10.05;85.92;96309.34;5065342;28;20206;-52
2022/05/03 02:35:56;;;;;;;5.93;5.43;;;;;;;10.06;86.09;96314.47;5064422;28;20198;-52
2022/05/03 02:38:26;;;;;;;6.67;6.07;;;;;;;10.04;86.11;96312.94;5064496;28;20225;-52
2022/05/03 02:40:53;;;;;;;6.30;5.70;;;;;;;10.10;85.69;96312.34;5063850;28;20212;-52
2022/05/03 02:43:25;;;;;;;6.23;5.67;;;;;;;10.02;86.44;96309.63;5064418;28;20249;-52
2022/05/03 02:45:57;;;;;;;7.17;6.43;;;;;;;10.02;86.41;96309.63;5064505;28;20203;-52
2022/05/03 02:48:29;;;;;;;6.30;5.73;;;;;;;10.01;86.32;96316.72;5064636;28;20201;-52
2022/05/03 02:51:03;;;;;;;6.57;6.07;;;;;;;9.90;86.88;96306.34;5063728;28;20658;-52
2022/05/03 02:53:40;;;;;;;6.33;5.83;;;;;;;9.98;86.69;96309.94;5064374;28;20207;-52
2022/05/03 02:56:16;;;;;;;6.97;6.23;;;;;;;9.99;86.24;96313.38;5063972;28;20206;-52
2022/05/03 02:58:46;;;;;;;7.00;6.40;;;;;;;9.95;86.24;96312.84;5063434;28;20192;-52
2022/05/03 03:04:05;;;;;;;7.20;6.57;;;;;;;9.90;86.28;96309.84;5063490;28;20269;-52
2022/05/03 03:06:33;;;;;;;6.80;6.20;;;;;;;9.88;87.58;96308.31;5063427;28;20238;-52
2022/05/03 03:09:01;;;;;;;6.53;6.03;;;;;;;9.89;87.87;96304.69;5064061;28;20202;-51
2022/05/03 03:11:32;;;;;;;7.20;5.97;;;;;;;9.89;87.07;96300.25;5063808;28;20201;-52
2022/05/03 03:14:12;;;;;;;6.60;6.00;;;;;;;9.84;87.78;96297.22;5063559;28;20425;-52
2022/05/03 03:16:43;;;;;;;6.40;5.90;;;;;;;9.90;87.92;96301.06;5064188;28;20229;-52
2022/05/03 03:19:24;;;;;;;6.87;6.37;;;;;;;9.89;87.29;96305.53;5066357;28;20547;-52
2022/05/03 03:21:51;;;;;;;7.63;7.03;;;;;;;9.89;87.84;96304.69;5066722;28;20230;-52
2022/05/03 03:24:19;;;;;;;6.93;6.37;;;;;;;9.83;89.21;96306.13;5063797;28;20203;-51
2022/05/03 03:26:45;;;;;;;6.83;6.23;;;;;;;9.84;88.71;96297.22;5063356;28;20191;-51
2022/05/03 03:29:13;;;;;;;6.57;6.03;;;;;;;9.88;88.46;96303.84;5063882;28;20272;-50
2022/05/03 03:31:42;;;;;;;7.10;6.50;;;;;;;9.85;89.21;96304.16;5062829;28;20305;-52
2022/05/03 03:34:09;;;;;;;7.47;6.83;;;;;;;9.83;89.13;96306.13;5062692;28;20226;-50
2022/05/03 03:36:36;;;;;;;7.50;6.90;;;;;;;9.81;89.13;96309.91;5063439;28;20203;-51
2022/05/03 03:39:04;;;;;;;8.33;7.53;;;;;;;9.81;89.15;96313.34;5062532;28;20631;-52
2022/05/03 03:41:31;;;;;;;7.50;6.90;;;;;;;9.85;89.02;96312.06;5063462;28;20204;-51
2022/05/03 03:43:57;;;;;;;7.57;6.97;;;;;;;9.76;89.48;96312.13;5062925;28;21307;-51
2022/05/03 03:46:24;;;;;;;7.37;6.77;;;;;;;9.83;89.72;96306.13;5062681;28;20628;-52
2022/05/03 03:48:51;;;;;;;7.57;6.97;;;;;;;9.82;89.93;96316.81;5062920;28;20225;-51
2022/05/03 03:51:17;;;;;;;7.57;6.93;;;;;;;9.76;91.05;96312.13;5063046;28;20214;-50
2022/05/03 03:53:45;;;;;;;11.67;10.53;;;;;;;9.75;90.80;96313.94;5063047;28;20199;-51
2022/05/03 03:56:12;;;;;;;10.37;9.23;;;;;;;9.73;91.46;96313.25;5062417;28;20513;-51
2022/05/03 03:58:38;;;;;;;8.73;8.00;;;;;;;9.76;89.76;96318.25;5062036;28;20226;-52
2022/05/03 04:01:05;;;;;;;7.60;7.00;;;;;;;9.74;91.15;96314.91;5062633;28;20205;-52
2022/05/03 04:03:33;;;;;;;7.47;6.87;;;;;;;9.76;91.63;96315.59;5063000;28;20233;-52
2022/05/03 04:05:59;;;;;;;8.20;7.40;;;;;;;9.82;90.89;96320.28;5062784;28;20206;-52
2022/05/03 04:08:27;;;;;;;8.77;7.97;;;;;;;9.76;90.67;96320.88;5062117;28;20202;-52
2022/05/03 04:10:55;;;;;;;8.17;7.57;;;;;;;9.70;90.98;96332.03;5062614;28;20212;-52
2022/05/03 04:13:21;;;;;;;8.17;7.37;;;;;;;9.77;91.50;96319.91;5062836;28;20257;-52
2022/05/03 04:15:49;;;;;;;7.57;6.97;;;;;;;9.81;91.55;96328.38;5061586;28;20553;-51
2022/05/03 04:18:15;;;;;;;7.80;7.10;;;;;;;9.85;91.36;96333.19;5062832;28;20204;-52
2022/05/03 04:20:42;;;;;;;8.27;7.47;;;;;;;9.88;92.21;96332.91;5062067;28;20210;-52
2022/05/03 04:23:10;;;;;;;8.90;8.10;;;;;;;9.95;91.70;96331.34;5061380;28;20662;-51
2022/05/03 04:25:37;;;;;;;8.30;7.60;;;;;;;9.94;91.24;96331.50;5061197;28;20233;-52
2022/05/03 04:28:04;;;;;;;8.47;7.67;;;;;;;9.98;91.35;96336.34;5062292;28;20627;-52
2022/05/03 04:30:31;;;;;;;8.53;7.93;;;;;;;10.04;91.51;96328.81;5062019;28;20211;-52
2022/05/03 04:32:58;;;;;;;8.60;7.80;;;;;;;10.16;90.76;96331.16;5061947;28;20205;-52
2022/05/03 04:35:24;;;;;;;8.00;7.40;;;;;;;10.27;90.16;96335.41;5062298;28;20223;-52
2022/05/03 04:37:51;;;;;;;8.43;7.73;;;;;;;10.42;89.65;96333.88;5062126;28;20550;-52
2022/05/03 04:40:17;;;;;;;7.80;7.10;;;;;;;10.62;88.23;96334.59;5077185;28;20199;-51
2022/05/03 04:42:44;;;;;;;8.60;7.77;;;;;;;10.62;87.44;96342.53;5079150;28;20174;-51
2022/05/03 04:45:12;;;;;;;8.60;7.80;;;;;;;11.07;87.43;96345.91;5081961;28;20195;-50
2022/05/03 04:47:38;;;;;;;9.17;7.47;;;;;;;11.53;84.53;96342.09;5063212;28;20222;-51
2022/05/03 04:50:06;;;;;;;8.27;7.47;;;;;;;11.72;82.92;96354.34;5060585;28;20697;-51
2022/05/03 04:52:32;;;;;;;7.93;7.23;;;;;;;11.73;82.51;96354.16;5062034;28;20289;-51
2022/05/03 04:54:59;;;;;;;7.73;7.00;;;;;;;11.75;82.34;96352.19;5061497;28;20230;-51
2022/05/03 04:57:25;;;;;;;7.67;7.03;;;;;;;11.80;82.56;96360.50;5061235;28;20203;-52
2022/05/03 04:59:52;;;;;;;7.40;6.73;;;;;;;11.81;83.25;96356.84;5061516;28;20654;-51
2022/05/03 05:02:20;;;;;;;7.80;7.10;;;;;;;12.07;82.41;96354.19;5064642;28;20211;-52
2022/05/03 05:04:46;;;;;;;7.33;6.73;;;;;;;12.15;82.18;96356.03;5063598;28;20198;-53
2022/05/03 05:07:13;;;;;;;7.73;7.13;;;;;;;12.06;82.63;96354.31;5062010;28;20202;-53
2022/05/03 05:10:23;;;;;;;7.30;6.70;;;;;;;12.07;83.08;96346.22;5061088;28;20235;-52
2022/05/03 05:12:30;;;;;;;7.50;6.80;;;;;;;12.19;82.35;96362.66;5060486;28;20702;-53
2022/05/03 05:14:56;;;;;;;7.17;6.57;;;;;;;12.14;82.33;96359.66;5061344;28;20315;-53
2022/05/03 05:17:25;;;;;;;7.23;6.63;;;;;;;12.10;83.59;96360.97;5061152;28;20207;-52
2022/05/03 05:19:51;;;;;;;7.80;7.20;;;;;;;12.29;83.12;96360.72;5062251;28;20207;-53
2022/05/03 05:22:17;;;;;;;7.60;7.00;;;;;;;12.75;81.58;96352.19;5065959;28;20215;-52
2022/05/03 05:24:44;;;;;;;7.83;7.07;;;;;;;13.09;78.26;96364.53;5066247;28;20213;-52
2022/05/03 05:27:10;;;;;;;8.30;7.60;;;;;;;13.26;75.91;96364.41;5061252;28;20534;-53
2022/05/03 05:29:37;;;;;;;7.83;7.13;;;;;;;12.97;79.99;96366.66;5062624;28;20215;-53
2022/05/03 05:32:05;;;;;;;7.87;7.23;;;;;;;13.13;79.22;96365.88;5061484;28;20225;-53
2022/05/03 05:34:35;;;;;;;7.23;6.63;;;;;;;12.88;78.10;96370.31;5063037;28;20211;-53
2022/05/03 05:37:02;;;;;;;8.20;7.40;;;;;;;12.70;80.06;96380.22;5066937;28;20580;-53
2022/05/03 05:39:29;;;;;;;7.90;7.27;;;;;;;12.55;81.21;96377.38;5066614;28;20209;-52
2022/05/03 05:41:56;;;;;;;7.83;7.13;;;;;;;12.53;81.11;96379.38;5065803;28;20195;-52
2022/05/03 05:44:23;;;;;;;8.03;7.37;;;;;;;12.52;81.58;96376.84;5067773;28;20220;-52
2022/05/03 05:46:49;;;;;;;7.33;6.70;;;;;;;12.42;82.75;96371.69;5066089;28;20191;-52
2022/05/03 05:49:16;;;;;;;7.60;7.00;;;;;;;12.43;81.01;96376.03;5066802;28;20231;-52
2022/05/03 05:51:45;;;;;;;7.90;7.20;;;;;;;12.37;81.73;96374.81;5065478;28;20201;-52
2022/05/03 05:54:10;;;;;;;8.43;7.53;;;;;;;12.32;82.64;96376.31;5066178;28;20313;-52
2022/05/03 05:56:37;;;;;;;8.70;7.77;;;;;;;12.32;82.56;96381.63;5064675;28;20750;-53
2022/05/03 05:59:03;;;;;;;7.67;7.00;;;;;;;12.36;84.96;96381.09;5065528;28;20569;-52
2022/05/03 06:01:36;;;;;;;8.97;8.07;;;;;;;12.39;81.32;96387.94;5064649;28;20211;-51
2022/05/03 06:04:03;;;;;;;8.63;7.73;;;;;;;12.44;80.34;96383.78;5065317;28;20195;-53
2022/05/03 06:06:29;;;;;;;8.83;8.03;;;;;;;12.39;81.34;96383.47;5065918;28;20214;-52
2022/05/03 06:08:57;;;;;;;8.47;7.87;;;;;;;12.45;81.59;96387.28;5065688;28;20202;-52
2022/05/03 06:11:23;;;;;;;8.67;7.93;;;;;;;12.40;79.53;96379.81;5065435;28;20203;-52
2022/05/03 06:13:50;;;;;;;9.57;8.77;;;;;;;12.47;79.02;96386.13;5065821;28;20721;-53
2022/05/03 06:16:16;;;;;;;9.17;8.27;;;;;;;12.45;81.71;96384.63;5065567;28;20557;-53
2022/05/03 06:18:43;;;;;;;9.23;8.30;;;;;;;12.44;82.19;96390.91;5065461;28;20196;-53
2022/05/03 06:21:09;;;;;;;9.23;8.53;;;;;;;12.41;81.49;96386.78;5066207;28;20201;-52
2022/05/03 06:23:36;;;;;;;9.17;8.47;;;;;;;12.42;81.10;96391.09;5064405;28;20619;-53
2022/05/03 06:26:05;;;;;;;9.83;8.63;;;;;;;12.40;82.71;96395.72;5065860;28;20206;-53
2022/05/03 06:28:32;;;;;;;9.00;8.30;;;;;;;12.55;81.95;96395.94;5065229;28;20236;-52
2022/05/03 06:30:58;;;;;;;9.20;8.43;;;;;;;12.59;80.79;96394.63;5065048;28;20211;-52
2022/05/03 06:33:24;;;;;;;9.90;9.00;;;;;;;12.69;81.28;96399.78;5066341;28;20217;-52
2022/05/03 06:35:51;;;;;;;10.20;9.13;;;;;;;12.80;80.00;96392.34;5072782;28;20235;-53
2022/05/03 06:38:18;;;;;;;10.27;9.40;;;;;;;13.02;77.98;96401.53;5073414;28;20207;-52
2022/05/03 06:40:44;;;;;;;10.53;9.63;;;;;;;13.19;75.39;96408.53;5073325;28;20191;-53
2022/05/03 06:43:12;;;;;;;9.47;8.60;;;;;;;13.26;75.02;96409.53;5073753;28;20546;-52
2022/05/03 06:45:38;;;;;;;9.83;9.03;;;;;;;13.60;73.57;96411.22;5072329;28;20202;-53
2022/05/03 06:48:06;;;;;;;9.83;9.03;;;;;;;13.99;74.91;96406.84;5073638;28;20214;-53
2022/05/03 06:50:33;;;;;;;10.60;9.60;;;;;;;14.22;73.73;96406.91;5072729;28;20202;-52
2022/05/03 06:53:00;;;;;;;9.73;8.73;;;;;;;14.31;71.84;96414.69;5073571;28;20202;-53
2022/05/03 06:55:26;;;;;;;10.00;9.10;;;;;;;14.24;71.98;96412.91;5072780;28;20317;-52
2022/05/03 06:57:52;;;;;;;9.97;9.07;;;;;;;14.24;70.59;96415.56;5083548;28;20206;-52
2022/05/03 07:00:21;;;;;;;11.23;9.27;;;;;;;14.40;72.39;96412.88;5088413;28;20199;-52
2022/05/03 07:02:47;;;;;;;10.60;9.47;;;;;;;14.50;69.94;96420.66;5076129;28;20190;-52
2022/05/03 07:05:14;;;;;;;10.13;9.33;;;;;;;14.58;70.83;96423.28;5072976;28;20218;-52
2022/05/03 07:07:40;;;;;;;10.63;9.60;;;;;;;14.81;69.88;96425.00;5073019;28;20191;-52
2022/05/03 07:10:07;;;;;;;9.70;8.80;;;;;;;14.95;68.08;96432.22;5072749;28;20202;-52
2022/05/03 07:12:34;;;;;;;10.57;9.60;;;;;;;15.22;68.20;96422.09;5072513;28;20225;-52
2022/05/03 07:15:00;;;;;;;9.57;8.57;;;;;;;15.42;69.86;96431.25;5072501;28;20205;-52
2022/05/03 07:22:58;;;;;;;11.00;9.30;;;;;;;16.11;64.42;96426.69;5072396;28;20201;-53
2022/05/03 07:25:24;;;;;;;9.07;8.30;;;;;;;16.34;63.74;96419.44;5072761;28;20210;-52
2022/05/03 07:27:51;;;;;;;8.83;8.00;;;;;;;16.75;61.09;96425.97;5072546;28;20191;-53
2022/05/03 07:30:18;;;;;;;10.02;8.50;;;;;;;17.01;61.64;96424.63;5072386;28;20206;-51
2022/05/03 07:32:46;;;;;;;9.10;7.93;;;;;;;17.11;60.24;96419.81;5071993;28;20202;-53
2022/05/03 07:35:13;;;;;;;9.53;8.60;;;;;;;17.34;59.50;96417.81;5072150;28;20217;-52
2022/05/03 07:37:41;;;;;;;9.47;8.77;;;;;;;17.68;56.83;96422.47;5072086;28;20206;-52
2022/05/03 07:40:09;;;;;;;8.45;7.65;;;;;;;17.73;56.61;96426.22;5072543;28;20214;-51
2022/05/03 07:42:35;;;;;;;8.77;8.00;;;;;;;17.85;57.52;96427.34;5071940;28;20506;-52
2022/05/03 07:45:02;;;;;;;8.02;7.32;;;;;;;18.20;54.08;96424.75;5072450;28;20206;-53
2022/05/03 07:47:28;;;;;;;8.52;7.68;;;;;;;18.35;55.15;96422.78;5072335;28;20202;-52
2022/05/03 07:49:56;;;;;;;7.70;7.05;;;;;;;18.70;54.00;96429.00;5072345;28;20202;-52
2022/05/03 07:52:22;;;;;;;7.95;7.25;;;;;;;19.07;53.56;96433.03;5072096;28;20202;-52
2022/05/03 07:54:49;;;;;;;8.70;7.63;;;;;;;19.23;51.98;96428.16;5072425;28;20214;-52
2022/05/03 07:57:15;;;;;;;8.15;7.35;;;;;;;19.38;49.51;96434.16;5071094;28;20234;-53
2022/05/03 07:59:42;;;;;;;8.20;7.50;;;;;;;19.43;50.85;96436.28;5071858;28;20390;-52
2022/05/03 08:02:09;;;;;;;8.43;7.72;;;;;;;19.58;51.29;96434.25;5071401;28;20202;-51
2022/05/03 08:04:35;;;;;;;7.70;7.10;;;;;;;19.57;49.31;96446.00;5071887;28;20229;-52
2022/05/03 08:07:03;;;;;;;7.95;7.35;;;;;;;20.15;51.07;96439.03;5071804;28;20199;-52
2022/05/03 08:09:30;;;;;;;7.53;6.82;;;;;;;20.32;50.77;96442.97;5071863;28;20195;-53
2022/05/03 08:11:57;;;;;;;7.72;7.00;;;;;;;20.58;48.11;96449.34;5071906;28;20209;-53
2022/05/03 08:14:23;;;;;;;6.88;6.18;;;;;;;20.60;46.14;96448.09;5071657;28;20643;-52
2022/05/03 08:16:51;;;;;;;7.00;6.07;;;;;;;20.11;44.99;96450.38;5071680;28;20662;-53
2022/05/03 08:19:17;;;;;;;6.13;5.10;;;;;;;20.03;48.12;96451.41;5071881;28;20202;-51
2022/05/03 08:21:45;;;;;;;8.57;6.13;;;;;;;19.58;45.81;96453.03;5071867;28;20576;-53
2022/05/03 08:24:13;;;;;;;6.93;6.35;;;;;;;19.83;47.82;96456.78;5071378;28;20202;-54
2022/05/03 08:26:39;;;;;;;6.80;6.32;;;;;;;19.95;46.18;96454.28;5071482;28;20578;-52
2022/05/03 08:29:06;;;;;;;6.65;5.90;;;;;;;20.08;47.22;96448.94;5070499;28;20203;-52
2022/05/03 08:31:32;;;;;;;6.60;6.10;;;;;;;20.09;48.11;96449.75;5071615;28;20213;-54
2022/05/03 08:34:01;;;;;;;7.57;6.88;;;;;;;19.73;48.47;96452.84;5071171;28;20588;-53
2022/05/03 08:36:28;;;;;;;7.95;7.22;;;;;;;19.31;48.65;96451.25;5071281;28;20644;-52
2022/05/03 08:44:24;;;;;;;9.27;7.00;;;;;;;18.59;52.26;96454.47;5071519;28;20190;-53
2022/05/03 08:46:51;;;;;;;7.95;7.22;;;;;;;18.29;50.74;96455.69;5071350;28;20546;-52
2022/05/03 08:49:17;;;;;;;8.93;7.25;;;;;;;17.92;51.07;96446.94;5071116;28;20217;-53
2022/05/03 08:51:45;;;;;;;8.40;6.72;;;;;;;17.79;53.48;96443.34;5070719;28;20723;-51
2022/05/03 08:54:11;;;;;;;7.07;6.47;;;;;;;17.91;54.07;96441.81;5071216;28;20209;-52
2022/05/03 08:56:40;;;;;;;7.78;7.18;;;;;;;17.77;55.82;96456.09;5071329;28;20221;-53
2022/05/03 08:59:06;;;;;;;8.38;7.10;;;;;;;17.82;56.03;96449.13;5071085;28;20305;-53
2022/05/03 09:01:36;;;;;;;7.68;6.95;;;;;;;17.94;53.13;96446.78;5070494;28;20217;-53
2022/05/03 09:04:02;;;;;;;7.93;7.20;;;;;;;17.86;52.64;96450.41;5070879;28;20206;-53
2022/05/03 09:06:42;;;;;;;7.38;6.78;;;;;;;17.92;52.81;96449.63;5070836;28;20195;-52
2022/05/03 09:09:10;;;;;;;8.07;7.25;;;;;;;17.99;52.26;96447.03;5070847;28;20203;-53
2022/05/03 09:11:46;;;;;;;10.20;7.35;;;;;;;17.89;50.99;96451.84;5083817;28;20202;-54
2022/05/03 09:14:13;;;;;;;7.95;7.18;;;;;;;17.63;53.29;96451.63;5086673;28;20227;-53
2022/05/03 09:16:49;;;;;;;7.80;7.20;;;;;;;17.56;54.95;96448.91;5093683;28;20210;-51
2022/05/03 09:19:23;;;;;;;7.65;6.90;;;;;;;17.65;54.68;96449.59;5071870;28;20230;-53
2022/05/03 09:24:55;;;;;;;8.00;7.20;;;;;;;17.63;54.85;96452.47;5070835;28;20291;-53
2022/05/03 09:27:25;;;;;;;7.68;6.78;;;;;;;17.92;54.39;96441.59;5070611;28;20199;-53
2022/05/03 09:30:06;;;;;;;8.20;7.28;;;;;;;18.07;56.03;96446.03;5071081;28;20206;-53
2022/05/03 09:32:38;;;;;;;8.57;7.78;;;;;;;18.13;53.64;96445.28;5070394;28;20202;-52
2022/05/03 09:35:05;;;;;;;8.23;7.25;;;;;;;18.38;57.80;96446.50;5070850;28;20194;-53
2022/05/03 09:37:39;;;;;;;8.90;8.00;;;;;;;18.67;54.61;96454.28;5070428;28;20230;-53
2022/05/03 09:40:08;;;;;;;10.52;7.35;;;;;;;18.93;52.08;96452.78;5070064;28;20278;-54
2022/05/03 09:42:37;;;;;;;9.20;6.57;;;;;;;19.36;55.65;96452.31;5070115;28;20536;-55
2022/05/03 09:45:05;;;;;;;8.48;7.75;;;;;;;19.71;53.16;96446.84;5070944;28;20218;-52
2022/05/03 09:47:33;;;;;;;8.02;7.30;;;;;;;20.46;49.86;96435.72;5070387;28;20199;-52
2022/05/03 09:50:01;;;;;;;8.20;7.50;;;;;;;20.84;49.79;96433.94;5070491;28;20202;-53
2022/05/03 09:52:29;;;;;;;8.02;7.10;;;;;;;21.40;49.29;96438.69;5070328;28;20203;-53
2022/05/03 09:54:59;;;;;;;7.38;6.85;;;;;;;21.88;49.57;96428.25;5071689;28;20336;-53
2022/05/03 09:57:27;;;;;;;7.35;6.63;;;;;;;22.44;46.48;96416.59;5069868;28;20229;-53
2022/05/03 09:59:56;;;;;;;6.97;5.97;;;;;;;22.69;45.00;96418.22;5070463;28;20634;-54
2022/05/03 10:02:25;;;;;;;6.68;6.13;;;;;;;22.67;42.99;96408.72;5069906;28;20206;-52
2022/05/03 10:04:53;;;;;;;6.50;5.90;;;;;;;22.87;44.34;96413.88;5070059;28;20210;-53
2022/05/03 10:07:21;;;;;;;6.68;6.20;;;;;;;22.52;42.80;96400.97;5070690;28;20209;-54
2022/05/03 10:09:48;;;;;;;7.00;6.50;;;;;;;22.77;45.07;96409.84;5070296;28;20231;-53
2022/05/03 10:12:15;;;;;;;8.90;7.03;;;;;;;22.45;44.91;96404.78;5070354;28;21617;-54
2022/05/03 10:14:43;;;;;;;6.90;6.30;;;;;;;22.41;46.14;96400.88;5070377;28;20286;-53
2022/05/03 10:22:57;;;;;;;8.27;7.55;;;;;;;22.37;44.72;96391.59;5072960;28;20237;-54
2022/05/03 10:25:31;;;;;;;8.00;6.63;;;;;;;23.27;45.18;96388.06;5073938;28;20199;-53
2022/05/03 10:27:59;;;;;;;7.30;6.70;;;;;;;23.49;44.24;96381.13;5073475;28;20202;-53
2022/05/03 10:30:28;;;;;;;8.15;7.45;;;;;;;22.76;43.92;96391.19;5073691;28;20206;-54
2022/05/03 10:33:40;;;;;;;7.57;6.88;;;;;;;22.83;45.41;96380.31;5073237;28;20583;-53
2022/05/03 10:36:46;;;;;;;8.20;7.47;;;;;;;22.39;45.74;96379.53;5037685;28;20206;-52
2022/05/03 10:39:21;;;;;;;8.43;7.68;;;;;;;22.60;45.49;96376.41;5012040;28;20623;-52
2022/05/03 10:41:55;;;;;;;10.93;7.50;;;;;;;22.25;45.35;96376.16;5065661;28;20643;-52
2022/05/03 10:44:44;;;;;;;8.98;7.15;;;;;;;22.14;44.28;96370.69;5073619;28;20220;-52
2022/05/03 10:47:12;;;;;;;8.18;7.47;;;;;;;21.49;45.27;96364.78;5073162;28;20190;-53
2022/05/03 10:50:16;;;;;;;8.00;7.25;;;;;;;21.32;46.43;96371.72;5073109;28;20195;-53
2022/05/03 10:52:46;;;;;;;7.18;6.60;;;;;;;21.33;48.31;96373.34;5073405;28;20206;-53
2022/05/03 10:55:14;;;;;;;8.27;7.53;;;;;;;21.62;46.24;96359.28;5073347;28;20682;-53
2022/05/03 10:58:13;;;;;;;8.25;7.32;;;;;;;21.90;45.41;96363.41;5073402;28;20222;-52
2022/05/03 11:01:05;;;;;;;6.95;6.35;;;;;;;22.38;46.39;96363.59;5068088;28;20202;-54
2022/05/03 11:03:32;;;;;;;8.25;7.55;;;;;;;22.39;46.74;96360.66;5072808;28;20626;-54
2022/05/03 11:06:49;;;;;;;7.30;6.60;;;;;;;22.79;45.28;96353.00;5072780;28;20209;-53
2022/05/03 11:09:25;;;;;;;5.18;4.88;;;;;;;23.12;42.57;96344.47;5073243;28;20207;-54
2022/05/03 11:12:07;;;;;;;6.00;5.50;;;;;;;23.04;38.58;96347.47;5073049;28;20202;-52
2022/05/03 11:14:53;;;;;;;4.80;4.40;;;;;;;23.47;36.94;96350.84;5074437;28;20195;-54
2022/05/03 11:17:20;;;;;;;5.35;4.95;;;;;;;23.46;37.92;96348.34;5072605;28;20214;-54
2022/05/03 11:19:50;;;;;;;4.45;4.22;;;;;;;23.70;37.82;96342.78;5072430;28;20241;-53
2022/05/03 11:22:18;;;;;;;4.20;4.00;;;;;;;23.96;39.84;96335.28;5072604;28;20266;-53
2022/05/03 11:24:46;;;;;;;4.43;4.03;;;;;;;24.34;36.10;96335.66;5082725;28;20206;-53
2022/05/03 11:27:14;;;;;;;5.00;4.60;;;;;;;24.43;33.33;96339.66;5087753;28;20288;-54
2022/05/03 11:29:45;;;;;;;4.50;4.20;;;;;;;24.76;33.06;96333.63;5084685;28;20236;-52
2022/05/03 11:32:13;;;;;;;4.40;3.90;;;;;;;24.92;34.49;96334.75;5072845;28;20615;-53
2022/05/03 11:34:39;;;;;;;4.70;4.22;;;;;;;25.32;35.28;96327.44;5071648;28;20206;-54
2022/05/03 11:37:07;;;;;;;5.63;4.60;;;;;;;25.00;34.81;96326.28;5070864;28;20711;-53
2022/05/03 11:39:36;;;;;;;5.00;4.38;;;;;;;24.76;34.07;96323.59;5072400;28;20233;-53
2022/05/03 11:42:06;;;;;;;4.80;4.45;;;;;;;24.80;35.04;96323.13;5072594;28;20831;-52
2022/05/03 11:44:33;;;;;;;5.22;4.88;;;;;;;24.39;35.09;96314.16;5072709;28;20280;-53
2022/05/03 11:47:02;;;;;;;4.55;4.15;;;;;;;24.35;36.72;96309.47;5072159;28;20668;-53
2022/05/03 11:49:31;;;;;;;4.65;4.13;;;;;;;24.48;36.47;96315.44;5072507;28;20229;-52
2022/05/03 11:57:40;;;;;;;3.90;3.60;;;;;;;24.44;34.41;96306.19;5030006;28;20216;-52
2022/05/03 12:00:10;;;;;;;4.10;3.80;;;;;;;24.29;34.71;96303.13;5062121;28;20207;-53
2022/05/03 12:02:41;;;;;;;3.95;3.67;;;;;;;24.04;33.75;96303.38;5071755;28;20236;-55
2022/05/03 12:05:15;;;;;;;3.97;3.72;;;;;;;24.06;34.48;96300.41;5072053;28;20214;-52
2022/05/03 12:07:46;;;;;;;4.55;4.20;;;;;;;24.01;33.98;96303.00;5071953;28;20693;-54
2022/05/03 12:10:20;;;;;;;4.07;3.67;;;;;;;24.16;34.65;96298.00;5072247;28;20248;-52
2022/05/03 12:12:50;;;;;;;4.85;4.55;;;;;;;23.84;34.12;96292.09;5071343;28;20708;-53
2022/05/03 12:15:22;;;;;;;4.25;3.95;;;;;;;24.24;36.63;96290.34;5071459;28;20195;-52
2022/05/03 12:17:53;;;;;;;4.65;4.25;;;;;;;24.17;34.03;96292.34;5071174;28;20222;-52
2022/05/03 12:20:19;;;;;;;4.40;4.10;;;;;;;24.16;37.63;96296.09;5071525;28;20213;-52